sensor_id;sensor_type;location;lat;lon;timestamp;P1;durP1;ratioP1;P2;durP2;ratioP2
2157;SDS011;41972;48.774;9.282;2023-08-17T00:00:06;20.23;;;18.73;;
2157;SDS011;41972;48.774;9.282;2023-08-17T00:02:35;18.20;;;16.60;;
2157;SDS011;41972;48.774;9.282;2023-08-17T00:05:00;15.03;;;13.97;;
2157;SDS011;41972;48.774;9.282;2023-08-17T00:07:26;15.73;;;14.40;;
2157;SDS011;41972;48.774;9.282;2023-08-17T00:09:52;21.70;;;20.20;;
2157;SDS011;41972;48.774;9.282;2023-08-17T00:12:17;16.03;;;14.70;;
2157;SDS011;41972;48.774;9.282;2023-08-17T00:14:43;16.43;;;15.33;;
2157;SDS011;41972;48.774;9.282;2023-08-17T00:17:08;16.40;;;15.27;;
2157;SDS011;41972;48.774;9.282;2023-08-17T00:19:34;16.57;;;15.33;;
2157;SDS011;41972;48.774;9.282;2023-08-17T00:22:01;17.37;;;15.90;;
2157;SDS011;41972;48.774;9.282;2023-08-17T00:24:26;20.93;;;19.80;;
2157;SDS011;41972;48.774;9.282;2023-08-17T00:26:52;27.10;;;25.50;;
2157;SDS011;41972;48.774;9.282;2023-08-17T00:29:17;16.63;;;15.43;;
2157;SDS011;41972;48.774;9.282;2023-08-17T00:31:43;15.60;;;14.40;;
2157;SDS011;41972;48.774;9.282;2023-08-17T00:34:08;16.73;;;15.53;;
2157;SDS011;41972;48.774;9.282;2023-08-17T00:36:34;15.93;;;14.93;;
2157;SDS011;41972;48.774;9.282;2023-08-17T00:39:00;17.50;;;16.00;;
2157;SDS011;41972;48.774;9.282;2023-08-17T00:41:26;17.40;;;16.20;;
2157;SDS011;41972;48.774;9.282;2023-08-17T00:43:53;16.80;;;15.60;;
2157;SDS011;41972;48.774;9.282;2023-08-17T00:46:19;17.17;;;15.67;;
2157;SDS011;41972;48.774;9.282;2023-08-17T00:48:47;18.10;;;16.70;;
2157;SDS011;41972;48.774;9.282;2023-08-17T00:51:13;18.37;;;17.07;;
2157;SDS011;41972;48.774;9.282;2023-08-17T00:53:39;22.13;;;20.63;;
2157;SDS011;41972;48.774;9.282;2023-08-17T00:56:05;21.20;;;19.90;;
2157;SDS011;41972;48.774;9.282;2023-08-17T00:58:31;23.03;;;21.53;;
2157;SDS011;41972;48.774;9.282;2023-08-17T01:00:57;31.47;;;29.60;;
2157;SDS011;41972;48.774;9.282;2023-08-17T01:03:23;22.27;;;20.40;;
2157;SDS011;41972;48.774;9.282;2023-08-17T01:05:50;20.37;;;18.67;;
2157;SDS011;41972;48.774;9.282;2023-08-17T01:08:16;21.00;;;19.60;;
2157;SDS011;41972;48.774;9.282;2023-08-17T01:10:47;21.10;;;19.10;;
2157;SDS011;41972;48.774;9.282;2023-08-17T01:14:01;19.50;;;18.00;;
2157;SDS011;41972;48.774;9.282;2023-08-17T01:16:21;24.33;;;22.73;;
2157;SDS011;41972;48.774;9.282;2023-08-17T01:18:52;18.70;;;17.37;;
2157;SDS011;41972;48.774;9.282;2023-08-17T01:21:17;24.27;;;22.13;;
2157;SDS011;41972;48.774;9.282;2023-08-17T01:23:48;29.17;;;27.17;;
2157;SDS011;41972;48.774;9.282;2023-08-17T01:26:15;26.60;;;24.40;;
2157;SDS011;41972;48.774;9.282;2023-08-17T01:28:44;25.53;;;23.27;;
2157;SDS011;41972;48.774;9.282;2023-08-17T01:31:13;29.17;;;26.87;;
2157;SDS011;41972;48.774;9.282;2023-08-17T01:33:54;25.27;;;23.23;;
2157;SDS011;41972;48.774;9.282;2023-08-17T01:36:26;26.60;;;24.20;;
2157;SDS011;41972;48.774;9.282;2023-08-17T01:38:58;26.77;;;24.67;;
2157;SDS011;41972;48.774;9.282;2023-08-17T01:41:26;26.90;;;24.67;;
2157;SDS011;41972;48.774;9.282;2023-08-17T01:43:52;26.40;;;24.23;;
2157;SDS011;41972;48.774;9.282;2023-08-17T01:46:19;29.20;;;26.90;;
2157;SDS011;41972;48.774;9.282;2023-08-17T01:48:45;28.87;;;26.53;;
2157;SDS011;41972;48.774;9.282;2023-08-17T01:51:13;28.63;;;26.20;;
2157;SDS011;41972;48.774;9.282;2023-08-17T01:53:46;31.47;;;29.00;;
2157;SDS011;41972;48.774;9.282;2023-08-17T01:56:12;31.80;;;29.53;;
2157;SDS011;41972;48.774;9.282;2023-08-17T01:58:38;26.73;;;24.37;;
2157;SDS011;41972;48.774;9.282;2023-08-17T02:01:03;25.67;;;23.40;;
2157;SDS011;41972;48.774;9.282;2023-08-17T02:03:29;31.40;;;28.87;;
2157;SDS011;41972;48.774;9.282;2023-08-17T02:05:58;28.63;;;26.30;;
2157;SDS011;41972;48.774;9.282;2023-08-17T02:08:24;30.07;;;27.63;;
2157;SDS011;41972;48.774;9.282;2023-08-17T02:10:50;33.67;;;30.47;;
2157;SDS011;41972;48.774;9.282;2023-08-17T02:13:16;32.63;;;30.13;;
2157;SDS011;41972;48.774;9.282;2023-08-17T02:15:43;41.03;;;38.33;;
2157;SDS011;41972;48.774;9.282;2023-08-17T02:18:08;32.53;;;29.77;;
2157;SDS011;41972;48.774;9.282;2023-08-17T02:20:34;40.93;;;38.10;;
2157;SDS011;41972;48.774;9.282;2023-08-17T02:23:00;33.63;;;30.93;;
2157;SDS011;41972;48.774;9.282;2023-08-17T02:25:26;31.13;;;28.53;;
2157;SDS011;41972;48.774;9.282;2023-08-17T02:27:52;31.57;;;28.97;;
2157;SDS011;41972;48.774;9.282;2023-08-17T02:30:18;27.80;;;25.27;;
2157;SDS011;41972;48.774;9.282;2023-08-17T02:32:43;33.00;;;30.47;;
2157;SDS011;41972;48.774;9.282;2023-08-17T02:35:09;28.03;;;25.43;;
2157;SDS011;41972;48.774;9.282;2023-08-17T02:37:35;28.13;;;25.90;;
2157;SDS011;41972;48.774;9.282;2023-08-17T02:40:01;28.17;;;25.77;;
2157;SDS011;41972;48.774;9.282;2023-08-17T02:42:26;25.50;;;23.37;;
2157;SDS011;41972;48.774;9.282;2023-08-17T02:44:52;31.17;;;28.27;;
2157;SDS011;41972;48.774;9.282;2023-08-17T02:47:17;28.17;;;25.77;;
2157;SDS011;41972;48.774;9.282;2023-08-17T02:49:43;30.97;;;28.50;;
2157;SDS011;41972;48.774;9.282;2023-08-17T02:52:08;30.37;;;27.87;;
2157;SDS011;41972;48.774;9.282;2023-08-17T02:54:34;30.07;;;27.73;;
2157;SDS011;41972;48.774;9.282;2023-08-17T02:56:59;29.70;;;27.20;;
2157;SDS011;41972;48.774;9.282;2023-08-17T02:59:25;27.00;;;24.80;;
2157;SDS011;41972;48.774;9.282;2023-08-17T03:01:50;29.43;;;27.20;;
2157;SDS011;41972;48.774;9.282;2023-08-17T03:04:16;29.73;;;27.03;;
2157;SDS011;41972;48.774;9.282;2023-08-17T03:06:42;31.23;;;28.80;;
2157;SDS011;41972;48.774;9.282;2023-08-17T03:09:07;26.67;;;24.57;;
2157;SDS011;41972;48.774;9.282;2023-08-17T03:11:33;25.80;;;23.70;;
2157;SDS011;41972;48.774;9.282;2023-08-17T03:13:58;26.40;;;24.17;;
2157;SDS011;41972;48.774;9.282;2023-08-17T03:16:27;25.47;;;23.27;;
2157;SDS011;41972;48.774;9.282;2023-08-17T03:18:54;26.47;;;24.40;;
2157;SDS011;41972;48.774;9.282;2023-08-17T03:21:20;24.07;;;21.87;;
2157;SDS011;41972;48.774;9.282;2023-08-17T03:23:46;23.67;;;21.67;;
2157;SDS011;41972;48.774;9.282;2023-08-17T03:26:12;27.87;;;25.53;;
2157;SDS011;41972;48.774;9.282;2023-08-17T03:28:37;30.13;;;27.63;;
2157;SDS011;41972;48.774;9.282;2023-08-17T03:31:03;27.87;;;25.57;;
2157;SDS011;41972;48.774;9.282;2023-08-17T03:33:28;30.73;;;28.23;;
2157;SDS011;41972;48.774;9.282;2023-08-17T03:35:54;31.77;;;29.13;;
2157;SDS011;41972;48.774;9.282;2023-08-17T03:38:20;28.93;;;26.23;;
2157;SDS011;41972;48.774;9.282;2023-08-17T03:40:46;32.10;;;29.00;;
2157;SDS011;41972;48.774;9.282;2023-08-17T03:43:12;32.70;;;30.27;;
2157;SDS011;41972;48.774;9.282;2023-08-17T03:45:40;31.33;;;28.70;;
2157;SDS011;41972;48.774;9.282;2023-08-17T03:48:06;42.30;;;38.50;;
2157;SDS011;41972;48.774;9.282;2023-08-17T03:50:32;31.00;;;28.17;;
2157;SDS011;41972;48.774;9.282;2023-08-17T03:52:58;34.43;;;31.50;;
2157;SDS011;41972;48.774;9.282;2023-08-17T03:55:23;30.40;;;27.60;;
2157;SDS011;41972;48.774;9.282;2023-08-17T03:57:49;31.40;;;28.83;;
2157;SDS011;41972;48.774;9.282;2023-08-17T04:00:14;28.97;;;26.60;;
2157;SDS011;41972;48.774;9.282;2023-08-17T04:02:40;26.83;;;24.20;;
2157;SDS011;41972;48.774;9.282;2023-08-17T04:05:05;29.57;;;26.83;;
2157;SDS011;41972;48.774;9.282;2023-08-17T04:07:31;28.70;;;26.30;;
2157;SDS011;41972;48.774;9.282;2023-08-17T04:09:57;27.00;;;24.70;;
2157;SDS011;41972;48.774;9.282;2023-08-17T04:12:23;31.20;;;28.50;;
2157;SDS011;41972;48.774;9.282;2023-08-17T04:14:48;38.07;;;35.17;;
2157;SDS011;41972;48.774;9.282;2023-08-17T04:17:14;30.03;;;27.57;;
2157;SDS011;41972;48.774;9.282;2023-08-17T04:19:40;30.63;;;28.13;;
2157;SDS011;41972;48.774;9.282;2023-08-17T04:22:05;36.23;;;33.40;;
2157;SDS011;41972;48.774;9.282;2023-08-17T04:24:31;33.00;;;30.30;;
2157;SDS011;41972;48.774;9.282;2023-08-17T04:26:56;32.80;;;30.10;;
2157;SDS011;41972;48.774;9.282;2023-08-17T04:29:22;38.73;;;35.13;;
2157;SDS011;41972;48.774;9.282;2023-08-17T04:31:47;32.87;;;30.17;;
2157;SDS011;41972;48.774;9.282;2023-08-17T04:34:13;32.43;;;29.77;;
2157;SDS011;41972;48.774;9.282;2023-08-17T04:36:38;35.60;;;33.03;;
2157;SDS011;41972;48.774;9.282;2023-08-17T04:39:04;29.67;;;27.13;;
2157;SDS011;41972;48.774;9.282;2023-08-17T04:41:30;26.57;;;24.27;;
2157;SDS011;41972;48.774;9.282;2023-08-17T04:43:56;53.27;;;50.00;;
2157;SDS011;41972;48.774;9.282;2023-08-17T04:46:21;29.77;;;27.30;;
2157;SDS011;41972;48.774;9.282;2023-08-17T04:48:48;39.77;;;37.13;;
2157;SDS011;41972;48.774;9.282;2023-08-17T04:51:14;32.07;;;29.33;;
2157;SDS011;41972;48.774;9.282;2023-08-17T04:53:40;33.53;;;31.17;;
2157;SDS011;41972;48.774;9.282;2023-08-17T04:56:06;33.13;;;30.73;;
2157;SDS011;41972;48.774;9.282;2023-08-17T04:58:31;30.07;;;27.87;;
2157;SDS011;41972;48.774;9.282;2023-08-17T05:00:58;33.10;;;30.83;;
2157;SDS011;41972;48.774;9.282;2023-08-17T05:03:24;31.23;;;28.93;;
2157;SDS011;41972;48.774;9.282;2023-08-17T05:05:51;37.53;;;34.60;;
2157;SDS011;41972;48.774;9.282;2023-08-17T05:08:17;38.73;;;36.13;;
2157;SDS011;41972;48.774;9.282;2023-08-17T05:10:43;32.30;;;29.97;;
2157;SDS011;41972;48.774;9.282;2023-08-17T05:13:08;32.33;;;29.87;;
2157;SDS011;41972;48.774;9.282;2023-08-17T05:15:34;28.53;;;26.20;;
2157;SDS011;41972;48.774;9.282;2023-08-17T05:17:59;52.17;;;49.27;;
2157;SDS011;41972;48.774;9.282;2023-08-17T05:20:25;40.70;;;38.23;;
2157;SDS011;41972;48.774;9.282;2023-08-17T05:22:51;28.70;;;26.57;;
2157;SDS011;41972;48.774;9.282;2023-08-17T05:25:16;36.10;;;33.80;;
2157;SDS011;41972;48.774;9.282;2023-08-17T05:27:42;33.47;;;31.03;;
2157;SDS011;41972;48.774;9.282;2023-08-17T05:30:07;57.47;;;54.33;;
2157;SDS011;41972;48.774;9.282;2023-08-17T05:32:33;32.90;;;30.60;;
2157;SDS011;41972;48.774;9.282;2023-08-17T05:34:59;26.40;;;24.37;;
2157;SDS011;41972;48.774;9.282;2023-08-17T05:37:24;31.63;;;29.37;;
2157;SDS011;41972;48.774;9.282;2023-08-17T05:39:50;28.40;;;26.33;;
2157;SDS011;41972;48.774;9.282;2023-08-17T05:42:16;31.93;;;30.03;;
2157;SDS011;41972;48.774;9.282;2023-08-17T05:44:42;32.37;;;29.90;;
2157;SDS011;41972;48.774;9.282;2023-08-17T05:47:07;26.67;;;24.73;;
2157;SDS011;41972;48.774;9.282;2023-08-17T05:49:33;24.60;;;22.80;;
2157;SDS011;41972;48.774;9.282;2023-08-17T05:51:58;25.30;;;23.40;;
2157;SDS011;41972;48.774;9.282;2023-08-17T05:54:24;25.63;;;23.73;;
2157;SDS011;41972;48.774;9.282;2023-08-17T05:56:49;24.17;;;22.17;;
2157;SDS011;41972;48.774;9.282;2023-08-17T05:59:15;26.00;;;24.10;;
2157;SDS011;41972;48.774;9.282;2023-08-17T06:01:41;23.67;;;21.87;;
2157;SDS011;41972;48.774;9.282;2023-08-17T06:04:06;20.47;;;18.97;;
2157;SDS011;41972;48.774;9.282;2023-08-17T06:06:32;21.80;;;20.30;;
2157;SDS011;41972;48.774;9.282;2023-08-17T06:08:58;22.80;;;21.20;;
2157;SDS011;41972;48.774;9.282;2023-08-17T06:11:23;32.70;;;30.77;;
2157;SDS011;41972;48.774;9.282;2023-08-17T06:13:49;22.30;;;20.80;;
2157;SDS011;41972;48.774;9.282;2023-08-17T06:16:15;25.27;;;23.53;;
2157;SDS011;41972;48.774;9.282;2023-08-17T06:18:40;28.83;;;26.73;;
2157;SDS011;41972;48.774;9.282;2023-08-17T06:21:06;30.63;;;28.20;;
2157;SDS011;41972;48.774;9.282;2023-08-17T06:23:32;29.83;;;27.73;;
2157;SDS011;41972;48.774;9.282;2023-08-17T06:25:58;36.33;;;34.13;;
2157;SDS011;41972;48.774;9.282;2023-08-17T06:28:24;24.60;;;22.50;;
2157;SDS011;41972;48.774;9.282;2023-08-17T06:30:54;52.13;;;49.53;;
2157;SDS011;41972;48.774;9.282;2023-08-17T06:33:20;28.93;;;26.83;;
2157;SDS011;41972;48.774;9.282;2023-08-17T06:35:47;25.80;;;24.17;;
2157;SDS011;41972;48.774;9.282;2023-08-17T06:38:13;31.80;;;29.90;;
2157;SDS011;41972;48.774;9.282;2023-08-17T06:40:38;35.23;;;33.23;;
2157;SDS011;41972;48.774;9.282;2023-08-17T06:43:04;41.00;;;38.73;;
2157;SDS011;41972;48.774;9.282;2023-08-17T06:45:32;25.70;;;23.73;;
2157;SDS011;41972;48.774;9.282;2023-08-17T06:47:58;46.47;;;43.97;;
2157;SDS011;41972;48.774;9.282;2023-08-17T06:50:24;31.10;;;29.10;;
2157;SDS011;41972;48.774;9.282;2023-08-17T06:52:51;43.57;;;41.17;;
2157;SDS011;41972;48.774;9.282;2023-08-17T06:55:17;34.20;;;32.30;;
2157;SDS011;41972;48.774;9.282;2023-08-17T06:57:42;26.17;;;24.57;;
2157;SDS011;41972;48.774;9.282;2023-08-17T07:00:09;22.43;;;20.97;;
2157;SDS011;41972;48.774;9.282;2023-08-17T07:02:38;29.23;;;27.50;;
2157;SDS011;41972;48.774;9.282;2023-08-17T07:05:04;30.33;;;28.43;;
2157;SDS011;41972;48.774;9.282;2023-08-17T07:07:30;30.93;;;29.03;;
2157;SDS011;41972;48.774;9.282;2023-08-17T07:09:58;36.70;;;34.93;;
2157;SDS011;41972;48.774;9.282;2023-08-17T07:12:24;40.23;;;38.23;;
2157;SDS011;41972;48.774;9.282;2023-08-17T07:14:49;35.67;;;33.57;;
2157;SDS011;41972;48.774;9.282;2023-08-17T07:17:16;27.97;;;26.30;;
2157;SDS011;41972;48.774;9.282;2023-08-17T07:19:41;22.53;;;20.63;;
2157;SDS011;41972;48.774;9.282;2023-08-17T07:22:07;28.07;;;26.47;;
2157;SDS011;41972;48.774;9.282;2023-08-17T07:24:32;34.03;;;32.03;;
2157;SDS011;41972;48.774;9.282;2023-08-17T07:26:58;27.93;;;26.33;;
2157;SDS011;41972;48.774;9.282;2023-08-17T07:29:24;22.70;;;20.80;;
2157;SDS011;41972;48.774;9.282;2023-08-17T07:31:49;26.37;;;24.57;;
2157;SDS011;41972;48.774;9.282;2023-08-17T07:34:15;22.43;;;20.60;;
2157;SDS011;41972;48.774;9.282;2023-08-17T07:36:40;22.17;;;20.53;;
2157;SDS011;41972;48.774;9.282;2023-08-17T07:39:06;27.03;;;24.87;;
2157;SDS011;41972;48.774;9.282;2023-08-17T07:41:32;35.80;;;33.73;;
2157;SDS011;41972;48.774;9.282;2023-08-17T07:43:58;49.97;;;47.47;;
2157;SDS011;41972;48.774;9.282;2023-08-17T07:46:23;33.00;;;31.00;;
2157;SDS011;41972;48.774;9.282;2023-08-17T07:48:49;35.57;;;33.37;;
2157;SDS011;41972;48.774;9.282;2023-08-17T07:51:15;27.50;;;25.70;;
2157;SDS011;41972;48.774;9.282;2023-08-17T07:53:40;26.27;;;24.23;;
2157;SDS011;41972;48.774;9.282;2023-08-17T07:56:06;26.77;;;25.10;;
2157;SDS011;41972;48.774;9.282;2023-08-17T07:58:31;28.40;;;26.60;;
2157;SDS011;41972;48.774;9.282;2023-08-17T08:00:57;33.73;;;32.03;;
2157;SDS011;41972;48.774;9.282;2023-08-17T08:03:22;28.63;;;27.03;;
2157;SDS011;41972;48.774;9.282;2023-08-17T08:05:48;38.77;;;36.87;;
2157;SDS011;41972;48.774;9.282;2023-08-17T08:08:14;27.23;;;25.73;;
2157;SDS011;41972;48.774;9.282;2023-08-17T08:10:40;25.60;;;24.10;;
2157;SDS011;41972;48.774;9.282;2023-08-17T08:13:06;38.13;;;36.23;;
2157;SDS011;41972;48.774;9.282;2023-08-17T08:15:32;30.03;;;27.93;;
2157;SDS011;41972;48.774;9.282;2023-08-17T08:17:58;23.77;;;22.47;;
2157;SDS011;41972;48.774;9.282;2023-08-17T08:20:24;21.90;;;20.40;;
2157;SDS011;41972;48.774;9.282;2023-08-17T08:22:50;34.43;;;32.67;;
2157;SDS011;41972;48.774;9.282;2023-08-17T08:25:15;42.23;;;40.30;;
2157;SDS011;41972;48.774;9.282;2023-08-17T08:27:41;58.83;;;56.23;;
2157;SDS011;41972;48.774;9.282;2023-08-17T08:30:07;45.63;;;43.57;;
2157;SDS011;41972;48.774;9.282;2023-08-17T08:32:32;31.37;;;29.63;;
2157;SDS011;41972;48.774;9.282;2023-08-17T08:34:58;28.97;;;27.37;;
2157;SDS011;41972;48.774;9.282;2023-08-17T08:37:24;22.23;;;20.83;;
2157;SDS011;41972;48.774;9.282;2023-08-17T08:39:50;23.10;;;21.80;;
2157;SDS011;41972;48.774;9.282;2023-08-17T08:42:21;27.00;;;25.60;;
2157;SDS011;41972;48.774;9.282;2023-08-17T08:44:47;18.23;;;17.03;;
2157;SDS011;41972;48.774;9.282;2023-08-17T08:47:14;21.23;;;19.83;;
2157;SDS011;41972;48.774;9.282;2023-08-17T08:49:49;20.33;;;19.13;;
2157;SDS011;41972;48.774;9.282;2023-08-17T08:52:22;19.43;;;17.87;;
2157;SDS011;41972;48.774;9.282;2023-08-17T08:54:52;24.67;;;23.20;;
2157;SDS011;41972;48.774;9.282;2023-08-17T08:57:22;17.00;;;15.90;;
2157;SDS011;41972;48.774;9.282;2023-08-17T08:59:48;38.77;;;36.97;;
2157;SDS011;41972;48.774;9.282;2023-08-17T09:02:15;45.57;;;43.47;;
2157;SDS011;41972;48.774;9.282;2023-08-17T09:04:42;28.20;;;26.60;;
2157;SDS011;41972;48.774;9.282;2023-08-17T09:07:09;33.63;;;32.03;;
2157;SDS011;41972;48.774;9.282;2023-08-17T09:09:37;17.80;;;16.70;;
2157;SDS011;41972;48.774;9.282;2023-08-17T09:12:03;22.13;;;20.93;;
2157;SDS011;41972;48.774;9.282;2023-08-17T09:14:32;19.73;;;18.57;;
2157;SDS011;41972;48.774;9.282;2023-08-17T09:16:58;17.50;;;16.40;;
2157;SDS011;41972;48.774;9.282;2023-08-17T09:19:24;17.13;;;15.73;;
2157;SDS011;41972;48.774;9.282;2023-08-17T09:21:49;32.00;;;30.50;;
2157;SDS011;41972;48.774;9.282;2023-08-17T09:24:15;22.00;;;20.67;;
2157;SDS011;41972;48.774;9.282;2023-08-17T09:26:40;20.63;;;19.23;;
2157;SDS011;41972;48.774;9.282;2023-08-17T09:29:16;27.60;;;26.30;;
2157;SDS011;41972;48.774;9.282;2023-08-17T09:31:45;26.83;;;25.53;;
2157;SDS011;41972;48.774;9.282;2023-08-17T09:34:11;25.47;;;23.97;;
2157;SDS011;41972;48.774;9.282;2023-08-17T09:36:39;30.33;;;28.77;;
2157;SDS011;41972;48.774;9.282;2023-08-17T09:39:05;21.33;;;20.03;;
2157;SDS011;41972;48.774;9.282;2023-08-17T09:41:35;21.50;;;20.10;;
2157;SDS011;41972;48.774;9.282;2023-08-17T09:44:04;23.03;;;21.63;;
2157;SDS011;41972;48.774;9.282;2023-08-17T09:46:30;24.07;;;22.70;;
2157;SDS011;41972;48.774;9.282;2023-08-17T09:48:56;18.23;;;17.10;;
2157;SDS011;41972;48.774;9.282;2023-08-17T09:51:21;18.73;;;17.57;;
2157;SDS011;41972;48.774;9.282;2023-08-17T09:53:51;25.10;;;23.90;;
2157;SDS011;41972;48.774;9.282;2023-08-17T09:56:18;29.60;;;28.23;;
2157;SDS011;41972;48.774;9.282;2023-08-17T09:58:46;22.90;;;21.30;;
2157;SDS011;41972;48.774;9.282;2023-08-17T10:01:12;27.57;;;26.17;;
2157;SDS011;41972;48.774;9.282;2023-08-17T10:03:39;24.47;;;23.07;;
2157;SDS011;41972;48.774;9.282;2023-08-17T10:06:11;25.93;;;24.70;;
2157;SDS011;41972;48.774;9.282;2023-08-17T10:08:44;23.37;;;22.00;;
2157;SDS011;41972;48.774;9.282;2023-08-17T10:11:14;22.30;;;21.10;;
2157;SDS011;41972;48.774;9.282;2023-08-17T10:13:51;24.60;;;23.17;;
2157;SDS011;41972;48.774;9.282;2023-08-17T10:16:23;20.93;;;19.60;;
2157;SDS011;41972;48.774;9.282;2023-08-17T10:21:23;16.90;;;15.70;;
2157;SDS011;41972;48.774;9.282;2023-08-17T10:23:55;21.33;;;19.87;;
2157;SDS011;41972;48.774;9.282;2023-08-17T10:26:21;28.40;;;26.80;;
2157;SDS011;41972;48.774;9.282;2023-08-17T10:28:48;24.30;;;23.00;;
2157;SDS011;41972;48.774;9.282;2023-08-17T10:31:15;18.47;;;17.47;;
2157;SDS011;41972;48.774;9.282;2023-08-17T10:33:40;21.13;;;19.97;;
2157;SDS011;41972;48.774;9.282;2023-08-17T10:36:09;18.00;;;16.80;;
2157;SDS011;41972;48.774;9.282;2023-08-17T10:38:35;17.80;;;16.80;;
2157;SDS011;41972;48.774;9.282;2023-08-17T10:41:45;13.83;;;13.03;;
2157;SDS011;41972;48.774;9.282;2023-08-17T10:43:59;18.23;;;17.20;;
2157;SDS011;41972;48.774;9.282;2023-08-17T10:46:35;19.13;;;18.03;;
2157;SDS011;41972;48.774;9.282;2023-08-17T10:49:04;17.93;;;16.83;;
2157;SDS011;41972;48.774;9.282;2023-08-17T10:51:31;21.13;;;19.93;;
2157;SDS011;41972;48.774;9.282;2023-08-17T10:53:58;19.10;;;17.80;;
2157;SDS011;41972;48.774;9.282;2023-08-17T10:56:26;14.43;;;13.43;;
2157;SDS011;41972;48.774;9.282;2023-08-17T10:58:53;18.83;;;17.73;;
2157;SDS011;41972;48.774;9.282;2023-08-17T11:01:35;17.80;;;16.80;;
2157;SDS011;41972;48.774;9.282;2023-08-17T11:04:15;17.37;;;15.83;;
2157;SDS011;41972;48.774;9.282;2023-08-17T11:06:43;17.57;;;16.57;;
2157;SDS011;41972;48.774;9.282;2023-08-17T11:09:09;21.33;;;20.03;;
2157;SDS011;41972;48.774;9.282;2023-08-17T11:11:36;23.77;;;22.67;;
2157;SDS011;41972;48.774;9.282;2023-08-17T11:14:02;17.00;;;16.10;;
2157;SDS011;41972;48.774;9.282;2023-08-17T11:16:28;13.97;;;13.00;;
2157;SDS011;41972;48.774;9.282;2023-08-17T11:25:37;16.43;;;15.53;;
2157;SDS011;41972;48.774;9.282;2023-08-17T11:28:04;15.20;;;14.40;;
2157;SDS011;41972;48.774;9.282;2023-08-17T11:30:31;12.37;;;11.67;;
2157;SDS011;41972;48.774;9.282;2023-08-17T11:32:59;15.27;;;14.37;;
2157;SDS011;41972;48.774;9.282;2023-08-17T11:35:24;14.43;;;13.10;;
2157;SDS011;41972;48.774;9.282;2023-08-17T11:37:51;17.73;;;16.73;;
2157;SDS011;41972;48.774;9.282;2023-08-17T11:40:17;17.20;;;16.20;;
2157;SDS011;41972;48.774;9.282;2023-08-17T11:42:43;20.20;;;19.10;;
2157;SDS011;41972;48.774;9.282;2023-08-17T11:45:09;17.70;;;16.67;;
2157;SDS011;41972;48.774;9.282;2023-08-17T11:47:38;20.53;;;19.23;;
2157;SDS011;41972;48.774;9.282;2023-08-17T11:50:05;16.33;;;15.43;;
2157;SDS011;41972;48.774;9.282;2023-08-17T11:52:33;16.83;;;15.80;;
2157;SDS011;41972;48.774;9.282;2023-08-17T11:54:59;17.63;;;16.70;;
2157;SDS011;41972;48.774;9.282;2023-08-17T11:57:25;14.07;;;13.00;;
2157;SDS011;41972;48.774;9.282;2023-08-17T11:59:55;18.50;;;17.47;;
2157;SDS011;41972;48.774;9.282;2023-08-17T12:02:25;17.87;;;16.77;;
2157;SDS011;41972;48.774;9.282;2023-08-17T12:04:51;13.77;;;12.80;;
2157;SDS011;41972;48.774;9.282;2023-08-17T12:07:18;14.13;;;13.27;;
2157;SDS011;41972;48.774;9.282;2023-08-17T12:09:45;17.27;;;16.27;;
2157;SDS011;41972;48.774;9.282;2023-08-17T12:12:11;17.77;;;16.77;;
2157;SDS011;41972;48.774;9.282;2023-08-17T12:14:40;20.77;;;19.67;;
2157;SDS011;41972;48.774;9.282;2023-08-17T12:17:07;18.50;;;17.50;;
2157;SDS011;41972;48.774;9.282;2023-08-17T12:19:32;19.37;;;18.23;;
2157;SDS011;41972;48.774;9.282;2023-08-17T12:21:58;18.50;;;17.30;;
2157;SDS011;41972;48.774;9.282;2023-08-17T12:24:23;18.77;;;17.67;;
2157;SDS011;41972;48.774;9.282;2023-08-17T12:26:49;21.17;;;19.77;;
2157;SDS011;41972;48.774;9.282;2023-08-17T12:29:15;17.83;;;16.53;;
2157;SDS011;41972;48.774;9.282;2023-08-17T12:31:42;21.97;;;20.53;;
2157;SDS011;41972;48.774;9.282;2023-08-17T12:34:07;15.23;;;14.13;;
2157;SDS011;41972;48.774;9.282;2023-08-17T12:36:33;16.97;;;15.77;;
2157;SDS011;41972;48.774;9.282;2023-08-17T12:39:03;17.10;;;16.03;;
2157;SDS011;41972;48.774;9.282;2023-08-17T12:41:29;15.17;;;13.97;;
2157;SDS011;41972;48.774;9.282;2023-08-17T12:43:55;18.37;;;17.37;;
2157;SDS011;41972;48.774;9.282;2023-08-17T12:46:24;21.97;;;20.50;;
2157;SDS011;41972;48.774;9.282;2023-08-17T12:48:49;18.70;;;17.27;;
2157;SDS011;41972;48.774;9.282;2023-08-17T12:51:15;22.70;;;21.20;;
2157;SDS011;41972;48.774;9.282;2023-08-17T12:53:41;17.33;;;16.03;;
2157;SDS011;41972;48.774;9.282;2023-08-17T12:56:07;22.47;;;21.20;;
2157;SDS011;41972;48.774;9.282;2023-08-17T12:58:33;19.97;;;18.67;;
2157;SDS011;41972;48.774;9.282;2023-08-17T13:00:58;21.57;;;20.00;;
2157;SDS011;41972;48.774;9.282;2023-08-17T13:03:24;24.67;;;23.07;;
2157;SDS011;41972;48.774;9.282;2023-08-17T13:05:49;19.63;;;18.23;;
2157;SDS011;41972;48.774;9.282;2023-08-17T13:08:15;20.83;;;19.50;;
2157;SDS011;41972;48.774;9.282;2023-08-17T13:10:41;19.13;;;17.93;;
2157;SDS011;41972;48.774;9.282;2023-08-17T13:13:06;24.30;;;22.93;;
2157;SDS011;41972;48.774;9.282;2023-08-17T13:15:32;18.50;;;17.30;;
2157;SDS011;41972;48.774;9.282;2023-08-17T13:17:58;17.33;;;16.20;;
2157;SDS011;41972;48.774;9.282;2023-08-17T13:20:24;15.20;;;14.27;;
2157;SDS011;41972;48.774;9.282;2023-08-17T13:22:51;13.23;;;12.43;;
2157;SDS011;41972;48.774;9.282;2023-08-17T13:25:17;15.20;;;14.20;;
2157;SDS011;41972;48.774;9.282;2023-08-17T13:27:42;15.37;;;14.23;;
2157;SDS011;41972;48.774;9.282;2023-08-17T13:30:10;13.80;;;12.90;;
2157;SDS011;41972;48.774;9.282;2023-08-17T13:32:35;19.47;;;18.27;;
2157;SDS011;41972;48.774;9.282;2023-08-17T13:35:01;15.57;;;14.43;;
2157;SDS011;41972;48.774;9.282;2023-08-17T13:37:28;13.57;;;12.77;;
2157;SDS011;41972;48.774;9.282;2023-08-17T13:39:54;13.73;;;12.50;;
2157;SDS011;41972;48.774;9.282;2023-08-17T13:42:20;11.50;;;10.70;;
2157;SDS011;41972;48.774;9.282;2023-08-17T13:44:45;15.20;;;14.37;;
2157;SDS011;41972;48.774;9.282;2023-08-17T13:47:11;12.50;;;11.40;;
2157;SDS011;41972;48.774;9.282;2023-08-17T13:49:37;13.77;;;12.80;;
2157;SDS011;41972;48.774;9.282;2023-08-17T13:52:03;21.00;;;19.97;;
2157;SDS011;41972;48.774;9.282;2023-08-17T13:54:29;16.30;;;15.40;;
2157;SDS011;41972;48.774;9.282;2023-08-17T13:56:54;16.00;;;15.13;;
2157;SDS011;41972;48.774;9.282;2023-08-17T13:59:20;19.37;;;18.30;;
2157;SDS011;41972;48.774;9.282;2023-08-17T14:01:45;18.67;;;17.37;;
2157;SDS011;41972;48.774;9.282;2023-08-17T14:04:11;15.53;;;14.33;;
2157;SDS011;41972;48.774;9.282;2023-08-17T14:06:40;16.67;;;15.57;;
2157;SDS011;41972;48.774;9.282;2023-08-17T14:09:06;17.10;;;16.20;;
2157;SDS011;41972;48.774;9.282;2023-08-17T14:11:32;19.90;;;18.83;;
2157;SDS011;41972;48.774;9.282;2023-08-17T14:13:58;16.20;;;15.10;;
2157;SDS011;41972;48.774;9.282;2023-08-17T14:16:23;16.30;;;15.00;;
2157;SDS011;41972;48.774;9.282;2023-08-17T14:18:49;14.10;;;13.27;;
2157;SDS011;41972;48.774;9.282;2023-08-17T14:21:14;16.77;;;15.67;;
2157;SDS011;41972;48.774;9.282;2023-08-17T14:23:40;17.47;;;16.37;;
2157;SDS011;41972;48.774;9.282;2023-08-17T14:26:06;17.10;;;15.93;;
2157;SDS011;41972;48.774;9.282;2023-08-17T14:28:32;16.90;;;15.80;;
2157;SDS011;41972;48.774;9.282;2023-08-17T14:30:58;14.53;;;13.43;;
2157;SDS011;41972;48.774;9.282;2023-08-17T14:33:23;16.27;;;15.17;;
2157;SDS011;41972;48.774;9.282;2023-08-17T14:35:49;18.70;;;17.47;;
2157;SDS011;41972;48.774;9.282;2023-08-17T14:38:15;16.17;;;14.63;;